Lamont, FL (32336)

3:47 AM EST on February 09, 2016 (GMT -0500)
Jefferson County Middle/High School WeatherSTEM | | Change Station
CLOSE
Current Station
Personal Weather Station
Location: Monticello, FL
Elevation: 167 ft
Nearby Weather Stations
Active Advisory: Freeze Warning

Elev 167 ft 30.49 °N, 83.88 °W | Updated 9 minutes ago

Clear
Clear
42.2 °F
Feels Like 42 °F
N
2.0
Wind Variable Wind from SW
Gusts 3.0 mph

Today
High -- | Low -- °F
--% Chance of Precip.
Yesterday
High -- | Low -- °F
Precip. -- in
Pressure 29.99 in
Visibility 10.0 miles
Clouds Clear
Windchill 42 °F
Dew Point 23 °F
Humidity 46%
Rainfall 0.00 in
Snow Depth Not available.
7:21 AM 6:18 PM
New Moon, 1% visible
METAR KTLH 090753Z AUTO 29010KT 10SM CLR 07/M06 A2999 RMK AO2 SLP154 T00671061
Pressure 29.99 in
Visibility 10.0 miles
Clouds Clear
Windchill 42 °F
Dew Point 23 °F
Humidity 46%
Rainfall 0.00 in
Snow Depth Not available.
7:21 AM 6:18 PM
New Moon, 1% visible
METAR KTLH 090753Z AUTO 29010KT 10SM CLR 07/M06 A2999 RMK AO2 SLP154 T00671061

10-Day Weather Forecast

Almanac

Astronomy

Feb. 09, 2016 Rise Set
Actual Time
Civil Twilight
Nautical Twilight
Astronomical Twilight
Moon
Length of Visible Light
Length of Day
Tomorrow will be .
, % of the Moon is Illuminated

Today's Extremes

State Highs State Lows

Community

WunderPhotos

Upload Photos

1,891,571 photos uploaded!

WunderBlog® & News

Nearby

Air Quality

  Air Quality AQ Index Pollutant
Not available.

Snow Depth

Station Depth Elevation

Earthquake Activity

City Distance Mag. Time & Date
Minimum magnitude displayed is 2.5.

Coastal Water Temperatures

Place Temperature

Stations

Nearby Weather Stations

Station Location Temp. Windchill Dew Point Humidity Wind Precip. Elev Updated Type
                   

Watches & Warnings

Freeze Warning
Issued: 2:30 AM CST Feb. 9, 2016 – National Weather Service

... Freeze warning in effect from 11 PM EST /10 PM CST/ this
evening to 9 am EST /8 am CST/ Wednesday...

The National Weather Service in Tallahassee has issued a freeze
warning... which is in effect from 11 PM EST /10 PM CST/ this
evening to 9 am EST /8 am CST/ Wednesday. The freeze watch is no
longer in effect.

* Minimum temperatures... 26 to 30 degrees.

* Freeze durations... from 10 hours over southeast Alabama to
around 3 hours south of Interstate 10.

Precautionary/preparedness actions...

A freeze warning means sub-freezing temperatures are imminent or
highly likely. These conditions will kill crops and other
sensitive vegetation.